Tiempo atmosférico en la estación meteorológica de Ayamonte, Huelva (2 m.)



Fecha
DESCASC
Temp. máxima en grados centígrados (hora)
DESCASC
Temp. mínima en grados centígrados (hora)
DESCASC
Temp. media en grados centígrados
DESCASC
Racha de viento máxima en m/sg (hora)
DESCASC
Velocidad máxima media en intervalos de 10 minutos(hora)
DESCASC
Precipitaciones diarias en mm
DESCASC
Precipitaciones de 00:00 a 06:00 en mm
DESCASC
Precipitaciones de 06:00 a 12:00 en mm
DESCASC
Precipitaciones de 12:00 a 18:00 en mm
DESCASC
Precipitaciones de 18:00 a 24:00 en mm
DESCASC
13-10-2019 25 (15:10) 15.4 (06:00) 20.2 6.94 (11:40) 4.17 (11:40) 0 0 0 0 0
12-10-2019 25.9 (17:00) 18.8 (09:10) 22.3 7.78 (20:20) 4.44 (21:10) 0 0 0 0 0
11-10-2019 26.4 (13:10) 17.6 (05:20) 22 6.67 (13:00) 3.33 (13:00) 0 0 0 0 0
10-10-2019 27.5 (15:40) 17.1 (00:00) 22.3 8.06 (03:30) 3.89 (03:30) 0 0 0 0 0
09-10-2019 32.1 (16:00) 18.6 (00:00) 25.3 9.17 (10:40) 4.72 (10:00) 0 0 0 0 0
08-10-2019 28.7 (12:30) 19.2 (00:00) 24 5.83 (01:10) 2.78 (18:50) 0 0 0 0 0
07-10-2019 33.6 (15:10) 17.6 (00:00) 25.6 7.5 (08:20) 4.72 (16:20) 0 0 0 0 0
06-10-2019 28.9 (14:20) 16 (00:00) 22.4 9.17 (01:50) 4.17 (16:40) 0 0 0 0 0
05-10-2019 27.4 (14:40) 17 (00:00) 22.2 9.72 (03:00) 4.17 (17:40) 0 0 0 0 0
04-10-2019 28.5 (15:20) 19.3 (00:00) 23.9 8.33 (01:30) 4.44 (17:40) 0 0 0 0 0
03-10-2019 26.7 (13:10) 15.7 (00:00) 21.2 7.78 (07:00) 5 (15:00) 0 0 0 0 0
02-10-2019 28.4 (15:40) 17 (00:00) 22.7 8.61 (04:10) 4.72 (04:10) 0 0 0 0 0
01-10-2019 31 (16:50) 18.4 (00:00) 24.7 8.89 (06:00) 4.17 (09:20) 0 0 0 0 0
30-09-2019 25.6 (15:40) 16.8 (00:00) 21.2 5.83 (12:50) 3.61 (13:10) 0 0 0 0 0
29-09-2019 28.7 (13:00) 17.8 (00:00) 23.3 6.39 (06:10) 3.33 (14:00) 0 0 0 0 0
28-09-2019 30.6 (14:00) 18.5 (00:00) 24.6 7.78 (05:10) 3.61 (04:30) 0 0 0 0 0
27-09-2019 29.5 (13:30) 18.2 (00:00) 23.9 9.17 (09:20) 3.89 (09:20) 0 0 0 0 0
26-09-2019 30.4 (14:20) 17.3 (00:00) 23.8 8.89 (03:00) 4.17 (16:50) 0 0 0 0 0
25-09-2019 30.1 (16:20) 18.2 (00:00) 24.2 8.33 (23:59) 3.61 (00:30) 0 0 0 0 0
24-09-2019 30.4 (14:50) 18.8 (00:00) 24.6 8.33 (03:00) 4.44 (16:20) 0 0 0 0 0
23-09-2019 29.1 (15:40) 17.1 (00:00) 23.1 7.22 (16:50) 4.17 (16:30) 0 0 0 0 0
22-09-2019 25.8 (17:00) 17.5 (00:00) 21.6 7.78 (07:40) 4.72 (17:30) 3.1 3 0 0.1 0
21-09-2019 24.2 (15:40) 19.6 (00:00) 21.9 7.22 (13:30) 4.72 (16:00) 0.2 0 0 0 0.2
20-09-2019 25.7 (14:50) 19.3 (00:00) 22.5 7.78 (00:20) 3.89 (00:10) 0.1 0 0 0.1 0
19-09-2019 27.8 (16:40) 18.6 (00:00) 23.2 8.06 (23:50) 5 (15:30) 0 0 0 0 0
18-09-2019 26.6 (16:10) 17.2 (00:00) 21.9 8.89 (18:30) 5.28 (18:00) 0 0 0 0 0
17-09-2019 27.8 (14:40) 19.5 (00:00) 23.6 6.11 (17:50) 3.89 (16:40) 0 0 0 0 0
16-09-2019 28.4 (13:10) 18.5 (00:00) 23.4 5.83 (16:10) 3.61 (14:40) 0 0 0 0 0

Gráficas

Temp. máximas Temp. mínimas Temp. medias Precipitaciones Rachas de viento máximas Velocidades máximas media en intervalos de 10 minutos

Datos horarios

Fecha y hora oficial Temperatura (ºC) Velocidad del viento (km/h) Dirección del viento Racha (km/h) Dirección de racha Precipitación (mm) Presión (hPa) Tendencia (hPa) Humedad (%)
2019-10-15 23:00:00 16 4 Oeste 12 Oeste 0 1021.1 1 61
2019-10-15 22:00:00 17.3 8 Oeste 23 Oeste 0 1020.8 0.6 58
2019-10-15 21:00:00 17.8 12 Oeste 26 Oeste 0 1020.5 0.2 56
2019-10-15 20:00:00 18.3 12 Sudoeste 21 Sudoeste 0 1020.1 -0.2 51
2019-10-15 19:00:00 19.9 13 Sudoeste 26 Oeste 0 1020.2 -0.4 44
2019-10-15 18:00:00 21.5 12 Sudoeste 23 Sudoeste 0 1020.3 -0.7 41
2019-10-15 17:00:00 21.7 13 Sudoeste 23 Sudoeste 0 1020.3 -1.5 40
2019-10-15 16:00:00 22.7 14 Sudoeste 22 Sudoeste 0 1020.6 -1.7 43
2019-10-15 15:00:00 22.8 9 Sudeste 18 Sur 0 1021 -1.7 40
2019-10-15 14:00:00 21.6 7 Sudeste 22 Sudeste 0 1021.8 -1 42
2019-10-15 13:00:00 20.5 3 Norte 13 Noroeste 0 1022.3 0.3 42
2019-10-15 12:00:00 19 4 Norte 14 Norte 0 1022.7 1.2 52
2019-10-15 11:00:00 16.6 6 Norte 13 Noroeste 0 1022.8 1.6 63
2019-10-15 10:00:00 14.4 4 Norte 13 Norte 0 1022 0.8 74
2019-10-15 09:00:00 12.5 4 Norte 14 Norte 0 1021.5 0.6 82
2019-10-15 08:00:00 12.2 2 Norte 8 Norte 0 1021.2 0.3 83
2019-10-15 07:00:00 12.2 0 Calma 8 Norte 0 1021.2 0.2 82
2019-10-15 06:00:00 12.1 0 Calma 7 Noroeste 0 1020.9 -0.1 80
2019-10-15 05:00:00 13.1 0 Calma 6 Noroeste 0 1020.9 -0.1 78
2019-10-15 04:00:00 14.1 4 Norte 10 Norte 0 1021 0.3 75
2019-10-15 03:00:00 15.2 6 Noroeste 22 Norte 0 1021 0.6 68
2019-10-15 02:00:00 16.2 9 Noroeste 18 Norte 0 1021 1 65
2019-10-15 01:00:00 16.6 9 Noroeste 19 Noroeste 0 1020.7 1.5 62
2019-10-15 00:00:00 17 9 Noroeste 18 Noroeste 0 1020.4 1.8 61
2019-10-14 23:00:00 16.6 4 Noroeste 11 Noroeste 0 1020 2.2 63
2019-10-14 22:00:00 17.6 6 Noroeste 12 Oeste 0 1019.2 1.9 64
2019-10-14 21:00:00 18.6 5 Noroeste 12 Norte 0 1018.6 1.8 64
2019-10-14 20:00:00 19.5 4 Noroeste 15 Noroeste 0 1017.8 1.6 63
2019-10-14 19:00:00 20.2 8 Noroeste 35 Noroeste 0 1017.3 1.5 58
2019-10-14 18:00:00 21.6 16 Oeste 40 Oeste 0 1016.8 0.8 58
2019-10-14 17:00:00 23.3 19 Oeste 43 Oeste 0 1016.2 -0.1 49
2019-10-14 16:00:00 24.3 25 Sudoeste 45 Sudoeste 0 1015.8 -0.8 49
2019-10-14 15:00:00 23.8 26 Sudoeste 45 Sudoeste 0 1016 -0.5 49
2019-10-14 14:00:00 22.6 24 Sudoeste 37 Sudoeste 0 1016.3 0.3 57
2019-10-14 13:00:00 23 15 Sudoeste 26 Sudoeste 0 1016.6 1.1 58
2019-10-14 12:00:00 21.3 10 Sudoeste 16 Sur 0 1016.5 1.9 60
2019-10-14 11:00:00 20.6 2 Oeste 9 Norte 0 1016 2.1 65
2019-10-14 10:00:00 18 2 Noroeste 15 Noroeste 0 1015.5 2.2 83
2019-10-14 09:00:00 17.8 4 Noroeste 15 Oeste 0 1014.6 2.4 86
2019-10-14 08:00:00 17.6 4 Oeste 10 Oeste 0 1013.9 2.4 85
2019-10-14 07:00:00 18.3 3 Noroeste 15 Oeste 0 1013.3 2 83
2019-10-14 06:00:00 19.6 9 Sudoeste 27 Sudoeste 0 1012.2 0.6 91
2019-10-14 05:00:00 19 14 Sudoeste 48 Sudoeste 5.6 1011.5 -0.3 89
2019-10-14 04:00:00 20.8 10 Sudoeste 16 Sudoeste 0 1011.3 -0.7 87
2019-10-14 03:00:00 19.6 7 Sudoeste 15 Oeste 0 1011.6 -0.6 89
2019-10-14 02:00:00 19.7 6 Sudoeste 16 Sudoeste 0 1011.8 -0.2 89
2019-10-14 01:00:00 19.8 7 Sudoeste 14 Oeste 0 1012 0.1 89
2019-10-14 00:00:00 20 8 Oeste 15 Sudoeste 0 1012.2 0.6 88
2019-10-13 23:00:00 19.5 6 Sudoeste 10 Sudoeste 0 1012 0.5 86
2019-10-13 22:00:00 19.9 7 Sudoeste 11 Sudoeste 0 1011.9 0.1 84
2019-10-13 21:00:00 20.3 5 Sudoeste 12 Oeste 0 1011.6 -0.7 79
2019-10-13 20:00:00 21.6 4 Sudoeste 11 Oeste 0 1011.5 -0.8 72
2019-10-13 19:00:00 23.1 6 Sudoeste 12 Sudoeste 0 1011.8 -1.1 65
2019-10-13 18:00:00 23.7 8 Sudoeste 13 Sur 0 1012.3 -1.2 63
2019-10-13 17:00:00 23.9 9 Sur 16 Sur 0 1012.3 -2.1 60
2019-10-13 16:00:00 24.2 9 Sur 18 Sudeste 0 1012.9 -1.8 59
2019-10-13 15:00:00 24.3 10 Sur 19 Sur 0 1013.5 -1.4 55
2019-10-13 14:00:00 24.3 9 Sudeste 21 Sudeste 0 1014.4 -0.3 58
2019-10-13 13:00:00 23.5 12 Sudeste 25 Sudeste 0 1014.7 0 64
2019-10-13 12:00:00 22.5 12 Sudeste 25 Este 0 1014.9 0.4 70
2019-10-13 11:00:00 20.8 9 Este 17 Este 0 1014.7 0.1 83
2019-10-13 10:00:00 18 10 Este 17 Este 0 1014.7 0.1 93
2019-10-13 09:00:00 17 8 Este 15 Este 0 1014.5 0.5 93
2019-10-13 08:00:00 16.7 5 Nordeste 10 Nordeste 0 1014.6 0.5 93
2019-10-13 07:00:00 15.5 0 Calma 6 Este 0 1014.6 0.2 93
2019-10-13 06:00:00 15.4 0 Calma 5 Norte 0 1014 -0.8 92
2019-10-13 05:00:00 15.8 0 Calma -- -- 0 1014.1 -0.9 92
2019-10-13 04:00:00 16.5 0 Calma -- -- 0 1014.4 -0.9 92
2019-10-13 03:00:00 16.9 0 Calma -- -- 0 1014.8 -0.4 90
2019-10-13 02:00:00 17.4 0 Calma 3 Sudoeste 0 1015 0 88
2019-10-13 01:00:00 18.1 0 Calma 8 Oeste 0 1015.3 0.9 87
2019-10-13 00:00:00 18.9 5 Sudoeste 17 Sudoeste 0 1015.2 1.1 87
2019-10-12 23:00:00 20 10 Sudoeste 20 Sudoeste 0 1015 1.4 87
2019-10-12 22:00:00 20.2 10 Sudoeste 25 Sudoeste 0 1014.4 1.1 84
2019-10-12 21:00:00 20.8 15 Sudoeste 28 Sudoeste 0 1014.1 0.8 79
2019-10-12 20:00:00 21.2 15 Sudoeste 25 Sudoeste 0 1013.6 0.1 73
2019-10-12 19:00:00 22.4 14 Sudoeste 24 Sudoeste 0 1013.3 -0.2 71
2019-10-12 18:00:00 24.6 12 Sudoeste 22 Sudoeste 0 1013.3 -0.8 65
2019-10-12 17:00:00 25.5 12 Sudoeste 20 Sur 0 1013.5 -1.5 62
2019-10-12 16:00:00 25.2 13 Sur 22 Sur 0 1013.5 -1.5 68
2019-10-12 15:00:00 25.4 11 Sur 20 Sur 0 1014.1 -1 67
2019-10-12 14:00:00 24.6 9 Sur 21 Sur 0 1015 -0.1 68
2019-10-12 13:00:00 24.3 9 Sur 18 Sur 0 1015 0.9 69
2019-10-12 12:00:00 23.5 4 Sur 8 Sur 0 1015.1 1.4 75
2019-10-12 11:00:00 23.2 5 Oeste 10 Oeste 0 1015.1 1.6 79
2019-10-12 10:00:00 20.7 0 Calma 4 Este 0 1014.1 0.5 92
2019-10-12 09:00:00 18.9 0 Calma 5 Este 0 1013.7 -0.1 92
2019-10-12 08:00:00 19.6 0 Calma 3 Este 0 1013.5 -0.1 92
2019-10-12 07:00:00 19.8 0 Calma 6 Este 0 1013.6 -0.5 92
2019-10-12 06:00:00 19.5 0 Calma 5 Norte 0 1013.8 -0.8 90
2019-10-12 05:00:00 20.5 0 Calma 8 Oeste 0 1013.6 -1.3 89
2019-10-12 04:00:00 21 2 Sudeste 8 Este 0 1014.1 -0.8 88
2019-10-12 03:00:00 21.4 0 Calma 10 Oeste 0 1014.6 -0.6 88
2019-10-12 02:00:00 21.3 5 Noroeste 13 Oeste 0 1014.9 -0.5 86
2019-10-12 01:00:00 21.4 3 Nordeste 7 Nordeste 0 1014.9 -0.6 86
2019-10-12 00:00:00 21.4 2 Nordeste 6 Este 0 1015.2 -0.2 86
2019-10-11 23:00:00 21.7 0 Calma 6 Sudoeste 0 1015.4 0.9 82
2019-10-11 22:00:00 22.3 0 Calma 6 Oeste 0 1015.5 0.5 79
2019-10-11 21:00:00 22.9 4 Oeste 11 Oeste 0 1015.4 -0.5 75
2019-10-11 20:00:00 23.5 3 Sudeste 15 Sudeste 0 1014.5 -0.8 72
2019-10-11 19:00:00 24.1 0 Calma 10 Sudoeste 0 1015 -1.1 68
2019-10-11 18:00:00 24 6 Sudoeste 18 Sudeste 0 1015.9 -0.4 65
2019-10-11 17:00:00 25.5 5 Sur 18 Sudeste 0 1015.3 -1.8 60
2019-10-11 16:00:00 25.3 7 Sur 19 Sudeste 0 1016.1 -1.2 57
2019-10-11 15:00:00 25.1 11 Sudeste 21 Sudeste 0 1016.3 -1.4 57
2019-10-11 14:00:00 24.8 7 Sudeste 22 Sudeste 0 1017.1 -0.6 55
2019-10-11 13:00:00 25.6 12 Sudeste 24 Sudeste 0 1017.3 0.1 54
2019-10-11 12:00:00 23.5 5 Este 12 Nordeste 0 1017.7 1.5 65
2019-10-11 11:00:00 22.1 4 Este 9 Este 0 1017.7 1.5 71
2019-10-11 10:00:00 19.8 0 Calma 4 Noroeste 0 1017.2 1.2 80
2019-10-11 09:00:00 17.8 0 Calma 6 Nordeste 0 1016.2 0.3 85
2019-10-11 08:00:00 18.2 0 Calma 6 Nordeste 0 1016.2 0.2 81
2019-10-11 07:00:00 18.8 0 Calma 8 Noroeste 0 1016 0.2 82
2019-10-11 06:00:00 18.4 3 Norte 8 Norte 0 1015.9 -0.2 85
2019-10-11 05:00:00 17.9 0 Calma 4 Norte 0 1016 -0.2 86
2019-10-11 04:00:00 18.9 0 Calma 6 Norte 0 1015.8 -0.7 85
2019-10-11 03:00:00 18.8 2 Norte 10 Norte 0 1016.1 -0.3 86
2019-10-11 02:00:00 19.2 3 Norte 6 Norte 0 1016.2 0.1 85
2019-10-11 01:00:00 19.4 0 Calma 5 Norte 0 1016.5 0.9 83
2019-10-11 00:00:00 20.1 3 Noroeste 4 Noroeste 0 1016.4 1.2 78
2019-10-10 23:00:00 20.9 0 Calma 7 Sudeste 0 1016.1 1.3 73
2019-10-10 22:00:00 21.8 0 Calma 4 Sur 0 1015.6 0.9 70
2019-10-10 21:00:00 22.2 0 Calma 7 Oeste 0 1015.2 0.5 66
2019-10-10 20:00:00 24.6 4 Oeste 9 Oeste 0 1014.8 -0.2 58
2019-10-10 19:00:00 26.1 6 Sudoeste 12 Sudoeste 0 1014.7 -0.5 55
2019-10-10 18:00:00 27 5 Sudoeste 12 Sur 0 1014.7 -1 52
2019-10-10 17:00:00 26.7 8 Sudoeste 15 Sur 0 1015 -1.3 51
2019-10-10 16:00:00 27.3 7 Sudoeste 18 Sudeste 0 1015.2 -1.5 50
2019-10-10 15:00:00 26.7 10 Sur 18 Sudeste 0 1015.7 -1.1 48
2019-10-10 14:00:00 26.4 8 Sudeste 22 Sur 0 1016.3 -0.5 48
2019-10-10 13:00:00 26.9 6 Sudeste 19 Este 0 1016.7 0.4 44
2019-10-10 12:00:00 26 3 Este 12 Noroeste 0 1016.8 1.4 45
2019-10-10 11:00:00 21.2 7 Noroeste 15 Noroeste 0 1016.8 1.8 54
2019-10-10 10:00:00 18.6 7 Norte 15 Norte 0 1016.3 1.6 60
2019-10-10 09:00:00 17.2 6 Norte 20 Noroeste 0 1015.4 0.8 62
2019-10-10 08:00:00 17.4 7 Norte 21 Norte 0 1015 0.7 61
2019-10-10 07:00:00 17.9 6 Norte 21 Norte 0 1014.7 0.2 58
2019-10-10 06:00:00 18.3 9 Norte 24 Norte 0 1014.6 -0.2 57
2019-10-10 05:00:00 18.8 11 Norte 27 Noroeste 0 1014.3 -0.5 54
2019-10-10 04:00:00 19.3 13 Norte 29 Noroeste 0 1014.5 -0.4 52
2019-10-10 03:00:00 20.4 8 Norte 25 Noroeste 0 1014.8 0 47
2019-10-10 02:00:00 21.1 10 Norte 28 Noroeste 0 1014.8 0.3 46
2019-10-10 01:00:00 22.2 13 Noroeste 28 Noroeste 0 1014.9 0.5 41
2019-10-10 00:00:00 23.8 13 Noroeste 26 Noroeste 0 1014.8 0.8 37
2019-10-09 23:00:00 25 12 Noroeste 23 Norte 0 1014.5 0.7 35
2019-10-09 22:00:00 20.2 3 Noroeste 9 Norte 0 1014.4 0.6 74
2019-10-09 21:00:00 21.2 4 Sudoeste 11 Oeste 0 1014 0.3 72
2019-10-09 20:00:00 22.6 5 Oeste 17 Oeste 0 1013.8 -0.2 69
2019-10-09 19:00:00 24.8 10 Sudoeste 19 Sudoeste 0 1013.8 -0.3 55
2019-10-09 18:00:00 27.5 9 Sudoeste 20 Sudoeste 0 1013.7 -0.8 45
2019-10-09 17:00:00 28 13 Sudoeste 22 Sudoeste 0 1014 -1.3 45
2019-10-09 16:00:00 30.6 4 Sudoeste 14 Norte 0 1014.1 -1.9 39
2019-10-09 15:00:00 30 4 Norte 15 Noroeste 0 1014.5 -1.7 39
2019-10-09 14:00:00 28.7 6 Noroeste 18 Noroeste 0 1015.3 -0.7 44
2019-10-09 13:00:00 26 5 Nordeste 22 Noroeste 0 1016 0.2 49
2019-10-09 12:00:00 22.7 15 Norte 31 Noroeste 0 1016.2 0.8 58
2019-10-09 11:00:00 20.9 12 Noroeste 33 Norte 0 1016 0.9 65
2019-10-09 10:00:00 19.4 17 Norte 30 Norte 0 1015.8 1.1 71
2019-10-09 09:00:00 19.1 10 Norte 25 Norte 0 1015.4 0.9 74
2019-10-09 08:00:00 19.7 10 Noroeste 22 Noroeste 0 1015.1 0.8 76
2019-10-09 07:00:00 20.3 8 Noroeste 22 Noroeste 0 1014.7 0.1 76
2019-10-09 06:00:00 20.9 8 Noroeste 19 Norte 0 1014.5 -0.5 76
2019-10-09 05:00:00 21.3 9 Noroeste 19 Norte 0 1014.3 -0.7 76
2019-10-09 04:00:00 18.9 3 Noroeste 8 Norte 0 1014.6 -0.8 87
2019-10-09 03:00:00 19.3 0 Calma 0 Calma 0 1015 -0.7 84
2019-10-09 02:00:00 20.3 2 Oeste 6 Oeste 0 1015 -0.7 81
2019-10-09 01:00:00 20.8 4 Oeste 8 Oeste 0 1015.4 0.3 79
2019-10-09 00:00:00 21.5 5 Sudoeste 9 Sudoeste 0 1015.7 0.6 78
2019-10-08 23:00:00 21.7 5 Sudoeste 10 Oeste 0 1015.7 1 76
2019-10-08 22:00:00 22.3 5 Sudoeste 11 Sudoeste 0 1015.1 0.4 71
2019-10-08 21:00:00 22.9 5 Sudoeste 13 Sudoeste 0 1015.1 0.3 66
2019-10-08 20:00:00 24.2 9 Oeste 15 Sudoeste 0 1014.7 -0.4 62
2019-10-08 19:00:00 26.7 7 Sudoeste 16 Sudoeste 0 1014.7 -0.7 53
2019-10-08 18:00:00 27.4 6 Sudoeste 14 Sur 0 1014.8 -1.1 50
2019-10-08 17:00:00 27.6 6 Sudoeste 14 Sur 0 1015.1 -1.4 49
2019-10-08 16:00:00 28.1 7 Sudoeste 17 Sudoeste 0 1015.4 -1.3 47
2019-10-08 15:00:00 27.9 9 Sudoeste 18 Sudoeste 0 1015.9 -0.9 46
2019-10-08 14:00:00 27.6 8 Sur 16 Sudeste 0 1016.5 -0.2 45
2019-10-08 13:00:00 28.3 6 Sudeste 16 Sur 0 1016.7 0.2 44
2019-10-08 12:00:00 27.7 3 Este 9 Este 0 1016.8 0.9 43
2019-10-08 11:00:00 24.8 2 Norte 8 Norte 0 1016.7 1.8 45
2019-10-08 10:00:00 22.1 2 Nordeste 9 Nordeste 0 1016.5 2 50
2019-10-08 09:00:00 19.3 5 Nordeste 15 Nordeste 0 1015.9 1.8 53
2019-10-08 08:00:00 21.2 4 Norte 19 Norte 0 1014.9 0.6 46
2019-10-08 07:00:00 21.6 4 Norte 19 Noroeste 0 1014.5 0.3 45
2019-10-08 06:00:00 22.3 4 Norte 15 Norte 0 1014.1 -0.3 44
2019-10-08 05:00:00 22.6 4 Este 17 Norte 0 1014.3 0.2 44
2019-10-08 04:00:00 23.8 8 Norte 19 Noroeste 0 1014.2 -0.4 41
2019-10-08 03:00:00 24.6 6 Norte 19 Norte 0 1014.4 -0.4 40
2019-10-08 02:00:00 25 7 Norte 21 Norte 0 1014.1 -1.1 40
2019-10-08 01:00:00 25.8 9 Norte 19 Noroeste 0 1014.6 -0.2 41
2019-10-08 00:00:00 21.1 3 Norte 10 Noroeste 0 1014.8 0.2 55
2019-10-07 23:00:00 20.6 2 Noroeste 4 Oeste 0 1015.2 0.7 57
2019-10-07 22:00:00 22.3 3 Oeste 12 Sudoeste 0 1014.8 0.1 50
2019-10-07 21:00:00 23.4 4 Sudoeste 20 Oeste 0 1014.6 0 49
2019-10-07 20:00:00 24.5 13 Oeste 24 Sudoeste 0 1014.5 -0.5 43
2019-10-07 19:00:00 26.3 12 Sudoeste 22 Sudoeste 0 1014.7 -0.6 43
2019-10-07 18:00:00 27.5 12 Sudoeste 26 Sudoeste 0 1014.6 -1.1 46
2019-10-07 17:00:00 28.6 14 Sudoeste 26 Sudoeste 0 1015 -1.3 47
2019-10-07 16:00:00 28.4 14 Sudoeste 24 Sudoeste 0 1015.3 -1.6 48
2019-10-07 15:00:00 33.2 4 Oeste 20 Noroeste 0 1015.7 -1.5 32
2019-10-07 14:00:00 31.3 5 Norte 17 Norte 0 1016.3 -1.1 34
2019-10-07 13:00:00 28.7 8 Norte 16 Noroeste 0 1016.9 0 40
2019-10-07 12:00:00 25.6 9 Noroeste 22 Noroeste 0 1017.2 0.6 52
2019-10-07 11:00:00 22.3 11 Noroeste 24 Noroeste 0 1017.4 1.2 62
2019-10-07 10:00:00 19.9 11 Norte 26 Norte 0 1016.9 1 72
2019-10-07 09:00:00 18.8 7 Noroeste 27 Noroeste 0 1016.6 0.8 76
2019-10-07 08:00:00 18.7 9 Norte 26 Noroeste 0 1016.2 0 75
2019-10-07 07:00:00 19.2 10 Noroeste 21 Norte 0 1015.9 -0.5 73
2019-10-07 06:00:00 19.7 5 Norte 17 Norte 0 1015.8 -1.4 70
2019-10-07 05:00:00 20.6 5 Norte 20 Noroeste 0 1016.2 -1 67
2019-10-07 04:00:00 21.3 8 Norte 20 Norte 0 1016.4 -1 63
2019-10-07 03:00:00 22 8 Norte 19 Noroeste 0 1017.2 -0.3 60
2019-10-07 02:00:00 22.3 7 Norte 19 Norte 0 1017.2 -0.3 60
2019-10-07 01:00:00 22.4 6 Norte 16 Norte 0 1017.4 0 61
2019-10-07 00:00:00 17.6 2 Noroeste 8 Noroeste 0 1017.5 0.4 87
2019-10-06 23:00:00 18.2 2 Oeste 8 Oeste 0 1017.5 0.5 85
2019-10-06 22:00:00 19.2 5 Oeste 9 Sudoeste 0 1017.4 0.5 83
2019-10-06 21:00:00 19.9 5 Sudoeste 13 Sudoeste 0 1017.1 0 79
2019-10-06 20:00:00 21.2 8 Sudoeste 18 Oeste 0 1017 -0.4 69
2019-10-06 19:00:00 23 12 Sudoeste 24 Oeste 0 1016.9 -0.9 64
2019-10-06 18:00:00 24.2 13 Sudoeste 23 Sudoeste 0 1017.1 -1 59
2019-10-06 17:00:00 25.1 14 Sudoeste 25 Sudoeste 0 1017.4 -1.1 52
2019-10-06 16:00:00 26.5 14 Sudoeste 24 Sudoeste 0 1017.8 -1.1 43
2019-10-06 15:00:00 25.9 10 Sudoeste 19 Sudoeste 0 1018.1 -0.9 45
2019-10-06 14:00:00 28 5 Oeste 12 Noroeste 0 1018.5 -0.6 35
2019-10-06 13:00:00 24.6 5 Norte 14 Noroeste 0 1018.9 0.5 47
2019-10-06 12:00:00 22.5 5 Norte 22 Noroeste 0 1019 1.3 56
2019-10-06 11:00:00 19.3 13 Noroeste 28 Norte 0 1019.1 1.8 64
2019-10-06 10:00:00 17.6 13 Noroeste 24 Norte 0 1018.4 1.3 70
2019-10-06 09:00:00 16.2 10 Noroeste 28 Norte 0 1017.7 0.6 74
2019-10-06 08:00:00 16.3 10 Norte 31 Norte 0 1017.3 0.3 73
2019-10-06 07:00:00 16.4 15 Norte 30 Noroeste 0 1017.1 0.4 71
2019-10-06 06:00:00 16.8 10 Norte 24 Norte 0 1017.1 -0.2 70
2019-10-06 05:00:00 17.4 11 Norte 23 Noroeste 0 1017 -0.3 69
2019-10-06 04:00:00 17.8 11 Norte 26 Norte 0 1016.7 -0.4 67
2019-10-06 03:00:00 18.7 8 Norte 30 Noroeste 0 1017.3 0.6 64
2019-10-06 02:00:00 19.5 15 Noroeste 33 Norte 0 1017.3 0.6 63
2019-10-06 01:00:00 20.5 15 Noroeste 26 Noroeste 0 1017.1 1 61
2019-10-06 00:00:00 20.1 7 Norte 17 Norte 0 1016.7 0.9 67
2019-10-05 23:00:00 18 4 Noroeste 8 Noroeste 0 1016.7 1.1 80
2019-10-05 22:00:00 19.4 4 Sudoeste 9 Oeste 0 1016.1 0.8 75
2019-10-05 21:00:00 20.4 4 Sudoeste 14 Oeste 0 1015.8 0.6 69
2019-10-05 20:00:00 21.1 7 Oeste 17 Oeste 0 1015.6 0.1 64
2019-10-05 19:00:00 22.6 10 Sudoeste 22 Sudoeste 0 1015.3 -0.5 61
2019-10-05 18:00:00 23.7 13 Sudoeste 25 Sudoeste 0 1015.2 -0.8 61
2019-10-05 17:00:00 24 13 Sudoeste 23 Sudoeste 0 1015.5 -1.3 55
2019-10-05 16:00:00 25.3 13 Sudoeste 22 Sudoeste 0 1015.8 -1.1 48
2019-10-05 15:00:00 25.2 12 Sudoeste 22 Sudoeste 0 1016 -1.1 49
2019-10-05 14:00:00 24.1 5 Noroeste 22 Noroeste 0 1016.8 -0.2 47
2019-10-05 13:00:00 23.4 12 Noroeste 26 Norte 0 1016.9 0.6 53
2019-10-05 12:00:00 21.4 9 Noroeste 26 Norte 0 1017.1 1.2 60
2019-10-05 11:00:00 19.7 13 Norte 26 Norte 0 1017 1.7 68
2019-10-05 10:00:00 18.1 14 Noroeste 27 Noroeste 0 1016.3 1.2 74
2019-10-05 09:00:00 17.3 11 Noroeste 26 Noroeste 0 1015.9 0.7 75
2019-10-05 08:00:00 17.1 10 Norte 23 Noroeste 0 1015.3 0.1 74
2019-10-05 07:00:00 17.4 11 Noroeste 26 Noroeste 0 1015.1 -0.4 73
2019-10-05 06:00:00 17.9 11 Norte 28 Norte 0 1015.2 -0.3 70
2019-10-05 05:00:00 18.4 11 Norte 26 Noroeste 0 1015.2 -0.3 69
2019-10-05 04:00:00 19.1 11 Noroeste 30 Noroeste 0 1015.5 -0.2 66
2019-10-05 03:00:00 20.1 15 Noroeste 35 Noroeste 0 1015.5 -0.2 65
2019-10-05 02:00:00 20.8 12 Noroeste 28 Noroeste 0 1015.5 -0.4 66
2019-10-05 01:00:00 21.6 12 Noroeste 27 Norte 0 1015.7 0.2 66
2019-10-05 00:00:00 20.9 6 Noroeste 12 Norte 0 1015.7 0.2 76
2019-10-04 23:00:00 20 4 Noroeste 12 Noroeste 0 1015.9 0.6 86
2019-10-04 22:00:00 20.2 6 Oeste 9 Oeste 0 1015.5 0.2 84
2019-10-04 21:00:00 20.9 5 Sudoeste 13 Sudoeste 0 1015.5 0.2 82
2019-10-04 20:00:00 22 7 Sudoeste 22 Sudoeste 0 1015.3 -0.3 77
2019-10-04 19:00:00 23.3 15 Sudoeste 27 Sudoeste 0 1015.3 -0.7 68
2019-10-04 18:00:00 24.6 14 Sudoeste 25 Sudoeste 0 1015.3 -1.3 62
2019-10-04 17:00:00 25.5 15 Sudoeste 25 Sudoeste 0 1015.6 -1.8 58
2019-10-04 16:00:00 26.3 13 Sudoeste 23 Sudoeste 0 1016 -1.9 58
2019-10-04 15:00:00 26.5 9 Norte 23 Noroeste 0 1016.6 -1.4 51
2019-10-04 14:00:00 25.7 12 Norte 26 Noroeste 0 1017.4 -0.7 56
2019-10-04 13:00:00 24.2 12 Noroeste 28 Norte 0 1017.9 0.1 61
2019-10-04 12:00:00 23.3 10 Norte 28 Noroeste 0 1018 0.6 65
2019-10-04 11:00:00 21.9 13 Noroeste 30 Noroeste 0 1018.1 0.8 75
2019-10-04 10:00:00 20.9 8 Norte 28 Noroeste 0 1017.8 0.6 82
2019-10-04 09:00:00 20.3 6 Norte 22 Norte 0 1017.4 0.2 85
2019-10-04 08:00:00 20 9 Norte 24 Noroeste 0 1017.3 0.2 86
2019-10-04 07:00:00 19.4 11 Norte 29 Noroeste 0 1017.2 -0.2 84
2019-10-04 06:00:00 19.7 7 Norte 24 Noroeste 0 1017.2 -0.6 77
2019-10-04 05:00:00 20.2 10 Noroeste 22 Norte 0 1017.1 -0.6 73
2019-10-04 04:00:00 20.7 9 Norte 23 Noroeste 0 1017.4 -0.7 72
2019-10-04 03:00:00 21.1 12 Norte 29 Norte 0 1017.8 -0.1 70
2019-10-04 02:00:00 21.5 12 Noroeste 30 Noroeste 0 1017.7 -0.2 69
2019-10-04 01:00:00 22 14 Noroeste 27 Norte 0 1018.1 0.4 67
2019-10-04 00:00:00 22.3 10 Noroeste 22 Norte 0 1017.9 0.5 67
2019-10-03 23:00:00 21.5 8 Noroeste 18 Norte 0 1017.9 0.6 70
2019-10-03 22:00:00 19.6 3 Noroeste 12 Sudoeste 0 1017.7 0.3 83
2019-10-03 21:00:00 19.6 5 Sudoeste 10 Sudoeste 0 1017.4 -0.3 79
2019-10-03 20:00:00 21.1 8 Sudoeste 17 Sudoeste 0 1017.3 -0.8 67
2019-10-03 19:00:00 22.7 10 Sudoeste 24 Sudoeste 0 1017.4 -0.8 59
2019-10-03 18:00:00 23.7 14 Sudoeste 25 Sudoeste 0 1017.7 -1.2 59
2019-10-03 17:00:00 24.1 18 Sudoeste 28 Sudoeste 0 1018.1 -1.3 59
2019-10-03 16:00:00 24.8 15 Sudoeste 27 Oeste 0 1018.2 -1.4 55
2019-10-03 15:00:00 25.1 18 Sudoeste 27 Sudoeste 0 1018.9 -1.1 54
2019-10-03 14:00:00 25.4 14 Sudoeste 21 Sudoeste 0 1019.4 -0.7 48
2019-10-03 13:00:00 25.1 8 Noroeste 21 Noroeste 0 1019.6 0.5 43
2019-10-03 12:00:00 23.5 9 Noroeste 24 Noroeste 0 1020 1 51
2019-10-03 11:00:00 19.9 14 Noroeste 25 Noroeste 0 1020.1 1 61
2019-10-03 10:00:00 17.8 12 Noroeste 25 Noroeste 0 1019.1 0.4 72
2019-10-03 09:00:00 16.3 14 Noroeste 28 Noroeste 0 1019 0.9 79
2019-10-03 08:00:00 15.9 9 Noroeste 26 Noroeste 0 1019.1 1.1 77
2019-10-03 07:00:00 16.4 10 Noroeste 28 Norte 0 1018.7 0.5 71
2019-10-03 06:00:00 16.8 7 Noroeste 22 Norte 0 1018.1 0.1 70
2019-10-03 05:00:00 17.3 10 Noroeste 26 Noroeste 0 1018 0 67
2019-10-03 04:00:00 18 11 Noroeste 25 Noroeste 0 1018.2 -0.1 67
2019-10-03 03:00:00 18.8 12 Noroeste 25 Noroeste 0 1018 -0.1 63
2019-10-03 02:00:00 19.5 12 Noroeste 24 Norte 0 1018 -0.1 60
2019-10-03 01:00:00 20.2 8 Noroeste 23 Noroeste 0 1018.3 0.9 59
2019-10-03 00:00:00 20.7 9 Norte 20 Norte 0 1018.1 1.2 59
2019-10-02 23:00:00 21.6 7 Noroeste 23 Noroeste 0 1018.1 1.4 56
2019-10-02 22:00:00 23.4 10 Noroeste 20 Norte 0 1017.4 0.8 51
2019-10-02 21:00:00 20.7 0 Calma 8 Sudoeste 0 1016.9 0.5 73
2019-10-02 20:00:00 22.6 6 Sudoeste 17 Oeste 0 1016.7 -0.2 65
2019-10-02 19:00:00 23.8 9 Sudoeste 21 Sudoeste 0 1016.6 -0.7 60
2019-10-02 18:00:00 25.3 12 Sudoeste 22 Sudoeste 0 1016.4 -1.3 54
2019-10-02 17:00:00 25.7 12 Sudoeste 21 Sudoeste 0 1016.9 -1.4 51
2019-10-02 16:00:00 25.6 14 Sudoeste 26 Oeste 0 1017.3 -1.2 48
2019-10-02 15:00:00 26.9 10 Noroeste 23 Norte 0 1017.7 -1.3 39
2019-10-02 14:00:00 26 10 Noroeste 30 Noroeste 0 1018.3 -0.8 43
2019-10-02 13:00:00 24.5 11 Noroeste 27 Norte 0 1018.5 -0.1 47
2019-10-02 12:00:00 22.1 12 Norte 29 Norte 0 1019 0.7 52
2019-10-02 11:00:00 20.3 13 Norte 28 Norte 0 1019.1 1.2 60
2019-10-02 10:00:00 18.8 10 Norte 20 Noroeste 0 1018.6 1 71
2019-10-02 09:00:00 17.2 5 Noroeste 22 Noroeste 0 1018.3 0.7 81
2019-10-02 08:00:00 17.2 8 Noroeste 17 Noroeste 0 1017.9 0.4 83
2019-10-02 07:00:00 17.4 8 Noroeste 16 Noroeste 0 1017.6 0.1 83
2019-10-02 06:00:00 18 7 Noroeste 20 Noroeste 0 1017.6 -0.4 80
2019-10-02 05:00:00 18.6 10 Noroeste 31 Noroeste 0 1017.5 -0.6 76
2019-10-02 04:00:00 19.2 15 Noroeste 26 Noroeste 0 1017.5 -0.7 70
2019-10-02 03:00:00 20.1 9 Noroeste 21 Norte 0 1018 0.1 66
2019-10-02 02:00:00 21 8 Noroeste 19 Norte 0 1018.1 0.6 63
2019-10-02 01:00:00 21 4 Noroeste 13 Noroeste 0 1018.2 1.1 60
2019-10-02 00:00:00 22.3 5 Noroeste 21 Noroeste 0 1017.9 1.9 58
2019-10-01 23:00:00 23.5 8 Noroeste 25 Norte 0 1017.5 2 57
2019-10-01 22:00:00 24.5 8 Noroeste 25 Noroeste 0 1017.1 1.6 56
2019-10-01 21:00:00 25.9 6 Noroeste 19 Noroeste 0 1016 0.5 47
2019-10-01 20:00:00 28.1 9 Noroeste 18 Norte 0 1015.5 0 41
2019-10-01 19:00:00 26 6 Sudoeste 20 Sudoeste 0 1015.5 -0.2 58
2019-10-01 18:00:00 26.9 11 Sudoeste 22 Sudoeste 0 1015.5 -0.7 53
2019-10-01 17:00:00 30.8 8 Noroeste 27 Noroeste 0 1015.5 -0.9 38
2019-10-01 16:00:00 30 11 Noroeste 27 Norte 0 1015.7 -1.3 39
2019-10-01 15:00:00 29 12 Noroeste 25 Noroeste 0 1016.2 -1.1 41
2019-10-01 14:00:00 27.6 10 Noroeste 31 Noroeste 0 1016.4 -0.4 44
2019-10-01 13:00:00 25.4 10 Norte 32 Noroeste 0 1017 0.7 50
2019-10-01 12:00:00 24.2 6 Norte 31 Norte 0 1017.3 2 56
2019-10-01 11:00:00 22.7 11 Norte 28 Noroeste 0 1016.8 1.9 63
2019-10-01 10:00:00 20.9 7 Noroeste 31 Norte 0 1016.3 1.9 70
2019-10-01 09:00:00 19.5 13 Norte 28 Norte 0 1015.3 1.1 79
2019-10-01 08:00:00 19.5 11 Noroeste 27 Norte 0 1014.9 0.8 78
2019-10-01 07:00:00 20 10 Noroeste 27 Noroeste 0 1014.4 0 77
2019-10-01 06:00:00 20.3 13 Norte 32 Norte 0 1014.2 -0.4 78
2019-10-01 05:00:00 20 12 Norte 28 Noroeste 0 1014.1 -0.6 76
2019-10-01 04:00:00 20.1 11 Noroeste 25 Norte 0 1014.4 -0.3 62
2019-10-01 03:00:00 20.2 6 Norte 14 Norte 0 1014.6 0.1 54
2019-10-01 02:00:00 21.1 8 Norte 19 Noroeste 0 1014.7 0.5 51
2019-10-01 01:00:00 20.1 6 Norte 17 Norte 0 1014.7 0.9 64
2019-10-01 00:00:00 18.7 3 Norte 6 Noroeste 0 1014.5 0.7 89
2019-09-30 23:00:00 19.4 3 Noroeste 9 Norte 0 1014.2 0.4 89
2019-09-30 22:00:00 20.2 6 Sudoeste 9 Oeste 0 1013.8 -0.3 84
2019-09-30 21:00:00 21.3 6 Oeste 10 Sudoeste 0 1013.8 -0.6 80
2019-09-30 20:00:00 23.2 3 Oeste 11 Sudoeste 0 1013.8 -1.5 69
2019-09-30 19:00:00 23.6 4 Sudoeste 10 Sur 0 1014.1 -1.3 74
2019-09-30 18:00:00 24 5 Sur 10 Sur 0 1014.4 -1.7 72
2019-09-30 17:00:00 24.4 6 Sudoeste 12 Sudoeste 0 1015.3 -1.3 71
2019-09-30 16:00:00 24.7 5 Sur 16 Sur 0 1015.4 -1.3 66
2019-09-30 15:00:00 24.8 8 Sur 17 Sudeste 0 1016.1 -0.8 64
2019-09-30 14:00:00 24.4 9 Sudeste 21 Este 0 1016.6 -0.2 67
2019-09-30 13:00:00 22.9 12 Este 21 Este 0 1016.7 0.2 70
2019-09-30 12:00:00 23.3 7 Este 13 Este 0 1016.9 0.8 59
2019-09-30 11:00:00 22.3 4 Nordeste 10 Este 0 1016.8 0.9 64
2019-09-30 10:00:00 19.8 6 Este 10 Este 0 1016.5 1.1 77
2019-09-30 09:00:00 17.6 4 Este 9 Este 0 1016.1 0.7 83
2019-09-30 08:00:00 18.5 3 Nordeste 12 Noroeste 0 1015.9 0.3 77
2019-09-30 07:00:00 19.1 3 Norte 11 Norte 0 1015.4 -0.6 75
2019-09-30 06:00:00 19.5 4 Norte 14 Norte 0 1015.4 -1.1 73
2019-09-30 05:00:00 20 6 Norte 15 Norte 0 1015.6 -1 69
2019-09-30 04:00:00 20.1 8 Norte 17 Noroeste 0 1016 -0.6 71
2019-09-30 03:00:00 17.1 3 Norte 7 Noroeste 0 1016.5 0.1 88
2019-09-30 02:00:00 17 0 Calma 3 Sur 0 1016.6 0.3 89
2019-09-30 01:00:00 17.8 0 Calma -- -- 0 1016.6 0.4 89
2019-09-30 00:00:00 18.4 0 Calma 3 Nordeste 0 1016.4 0.7 88
2019-09-29 23:00:00 19.2 0 Calma 5 Nordeste 0 1016.3 0.7 88
2019-09-29 22:00:00 20.2 0 Calma 5 Sur 0 1016.2 0.3 86
2019-09-29 21:00:00 20.9 0 Calma 4 Sur 0 1015.7 -0.5 81
2019-09-29 20:00:00 22.5 3 Sur 10 Sudoeste 0 1015.6 -1 74
2019-09-29 19:00:00 23.6 6 Sudoeste 14 Sudoeste 0 1015.9 -1.1 70
2019-09-29 18:00:00 23.8 9 Sudoeste 14 Sudoeste 0 1016.2 -1.3 68
2019-09-29 17:00:00 24.5 9 Sudoeste 17 Sur 0 1016.6 -1.5 65
2019-09-29 16:00:00 24.6 12 Sudoeste 19 Sur 0 1017 -0.9 64
2019-09-29 15:00:00 25.2 11 Sur 22 Sudeste 0 1017.5 -0.6 55
2019-09-29 14:00:00 25.9 12 Sur 19 Sur 0 1018.1 0.4 47
2019-09-29 13:00:00 26.9 6 Sur 14 Sur 0 1017.9 0.6 49
2019-09-29 12:00:00 25.6 3 Nordeste 16 Norte 0 1018.1 1.4 49
2019-09-29 11:00:00 22.6 4 Norte 14 Norte 0 1017.7 1.5 60
2019-09-29 10:00:00 20 4 Norte 15 Noroeste 0 1017.3 1.4 68
2019-09-29 09:00:00 18.1 3 Norte 14 Noroeste 0 1016.7 0.8 73
2019-09-29 08:00:00 18.2 6 Norte 15 Noroeste 0 1016.2 0.3 71
2019-09-29 07:00:00 18.9 3 Norte 23 Noroeste 0 1015.9 -0.6 68
2019-09-29 06:00:00 19.9 3 Norte 20 Noroeste 0 1015.9 -0.6 64
2019-09-29 05:00:00 20.5 8 Noroeste 20 Nordeste 0 1015.9 -0.5 62
2019-09-29 04:00:00 20.8 7 Norte 19 Noroeste 0 1016.5 0.1 60
2019-09-29 03:00:00 21.3 8 Norte 20 Norte 0 1016.5 0.3 57
2019-09-29 02:00:00 22 9 Noroeste 21 Norte 0 1016.4 0.4 54
2019-09-29 01:00:00 22.5 6 Norte 18 Noroeste 0 1016.4 0.6 55
2019-09-29 00:00:00 23.3 4 Norte 15 Noroeste 0 1016.2 0.5 54
2019-09-28 23:00:00 22 3 Norte 10 Norte 0 1016 0.3 57
2019-09-28 22:00:00 20.3 3 Norte 11 Oeste 0 1015.8 -0.1 67
2019-09-28 21:00:00 21.6 2 Oeste 12 Sudoeste 0 1015.7 -0.4 63
2019-09-28 20:00:00 23.2 8 Sudoeste 18 Oeste 0 1015.7 -0.6 59
2019-09-28 19:00:00 25.3 10 Sudoeste 21 Sudoeste 0 1015.9 -0.7 57
2019-09-28 18:00:00 26.7 11 Sudoeste 19 Sudoeste 0 1016.1 -0.9 52
2019-09-28 17:00:00 26.5 11 Sudoeste 18 Sudoeste 0 1016.3 -1.3 58
2019-09-28 16:00:00 25.6 10 Sudoeste 17 Sur 0 1016.6 -1.6 60
2019-09-28 15:00:00 27 11 Sur 18 Sur 0 1017 -1.3 45
2019-09-28 14:00:00 30.1 6 Sudoeste 11 Sudoeste 0 1017.6 -0.8 41
2019-09-28 13:00:00 28.2 3 Nordeste 12 Nordeste 0 1018.2 0.4 44
2019-09-28 12:00:00 25.8 5 Norte 22 Noroeste 0 1018.3 0.9 56
2019-09-28 11:00:00 22.6 6 Norte 19 Norte 0 1018.4 1.5 66
2019-09-28 10:00:00 20.3 9 Norte 27 Noroeste 0 1017.8 1.1 75
2019-09-28 09:00:00 18.8 10 Noroeste 22 Noroeste 0 1017.4 0.9 82
2019-09-28 08:00:00 18.7 12 Noroeste 20 Noroeste 0 1016.9 0.4 81
2019-09-28 07:00:00 19.3 11 Norte 27 Noroeste 0 1016.7 0 77
2019-09-28 06:00:00 20 11 Noroeste 28 Norte 0 1016.5 -0.4 73
2019-09-28 05:00:00 20.5 11 Norte 27 Norte 0 1016.5 -0.9 70
2019-09-28 04:00:00 21.2 11 Noroeste 26 Noroeste 0 1016.7 -0.8 66
2019-09-28 03:00:00 22.1 11 Norte 27 Norte 0 1016.9 -0.5 62
2019-09-28 02:00:00 22.9 10 Noroeste 23 Norte 0 1017.4 0.2 56
2019-09-28 01:00:00 23.7 12 Noroeste 21 Noroeste 0 1017.5 0.7 52
2019-09-28 00:00:00 23.1 8 Noroeste 17 Norte 0 1017.4 1 54
2019-09-27 23:00:00 20.8 4 Noroeste 10 Noroeste 0 1017.2 1 74
2019-09-27 22:00:00 21.4 5 Oeste 11 Oeste 0 1016.8 0.6 72
2019-09-27 21:00:00 21.5 5 Oeste 12 Sudoeste 0 1016.4 0.1 63
2019-09-27 20:00:00 23 7 Sudoeste 18 Sudoeste 0 1016.2 -0.6 58
2019-09-27 19:00:00 25.8 10 Sudoeste 17 Oeste 0 1016.2 -0.9 51
2019-09-27 18:00:00 26.8 11 Sudoeste 22 Sudoeste 0 1016.3 -1.3 50
2019-09-27 17:00:00 27.4 12 Sudoeste 23 Oeste 0 1016.8 -1.4 52
2019-09-27 16:00:00 27.5 13 Sudoeste 22 Sudoeste 0 1017.1 -1.3 49
2019-09-27 15:00:00 28 11 Sudoeste 22 Sudoeste 0 1017.6 -1.3 44
2019-09-27 14:00:00 29 10 Sudoeste 18 Oeste 0 1018.2 -0.1 38
2019-09-27 13:00:00 27.9 5 Norte 15 Noroeste 0 1018.4 0.4 41
2019-09-27 12:00:00 25.1 4 Norte 19 Norte 0 1018.9 1.2 49
2019-09-27 11:00:00 22 9 Norte 24 Noroeste 0 1018.3 0.8 58
2019-09-27 10:00:00 19.6 12 Noroeste 33 Noroeste 0 1018 0.8 67
2019-09-27 09:00:00 18.3 12 Norte 26 Norte 0 1017.7 0.7 70
2019-09-27 08:00:00 18.7 9 Norte 24 Norte 0 1017.5 0.3 68
2019-09-27 07:00:00 19.2 8 Norte 21 Norte 0 1017.2 -0.1 67
2019-09-27 06:00:00 19.6 9 Norte 24 Noroeste 0 1017 -0.6 65
2019-09-27 05:00:00 20.1 9 Norte 23 Noroeste 0 1017.2 -0.3 63
2019-09-27 04:00:00 20.8 12 Norte 27 Noroeste 0 1017.3 -0.2 60
2019-09-27 03:00:00 21.5 10 Norte 26 Noroeste 0 1017.6 0.1 57
2019-09-27 02:00:00 22.5 10 Norte 26 Norte 0 1017.5 0.2 57
2019-09-27 01:00:00 22.8 9 Norte 19 Noroeste 0 1017.5 0.6 57
2019-09-27 00:00:00 19.3 0 Calma 5 Norte 0 1017.5 1.1 80
2019-09-26 23:00:00 19.9 2 Noroeste 8 Oeste 0 1017.3 1 80
2019-09-26 22:00:00 21.1 5 Oeste 12 Oeste 0 1016.9 0.8 72
2019-09-26 21:00:00 21.6 5 Sudoeste 15 Sudoeste 0 1016.4 0.2 66
2019-09-26 20:00:00 23.7 8 Sudoeste 17 Sudoeste 0 1016.3 -0.3 53
2019-09-26 19:00:00 25.8 12 Sudoeste 22 Sudoeste 0 1016.1 -0.8 49
2019-09-26 18:00:00 26.7 13 Sudoeste 23 Sudoeste 0 1016.2 -1.1 48
2019-09-26 17:00:00 26.4 14 Sudoeste 23 Sudoeste 0 1016.6 -1.2 52
2019-09-26 16:00:00 26.7 12 Sudoeste 19 Sudoeste 0 1016.9 -1.4 48
2019-09-26 15:00:00 28.8 9 Sudoeste 16 Sudoeste 0 1017.3 -1.3 43
2019-09-26 14:00:00 29.9 4 Sudoeste 13 Oeste 0 1017.8 -0.5 35
2019-09-26 13:00:00 27.1 5 Noroeste 18 Noroeste 0 1018.3 0.3 44
2019-09-26 12:00:00 24.3 8 Noroeste 22 Noroeste 0 1018.6 1 53
2019-09-26 11:00:00 21.1 13 Noroeste 26 Noroeste 0 1018.3 1.2 62
2019-09-26 10:00:00 18.6 9 Norte 26 Noroeste 0 1018 1.1 71
2019-09-26 09:00:00 17.5 12 Noroeste 27 Noroeste 0 1017.6 0.9 74
2019-09-26 08:00:00 17.5 11 Noroeste 28 Norte 0 1017.1 0.4 73
2019-09-26 07:00:00 17.9 10 Norte 27 Norte 0 1016.9 0.2 71
2019-09-26 06:00:00 18.4 13 Noroeste 24 Norte 0 1016.7 0 70
2019-09-26 05:00:00 19 10 Noroeste 26 Noroeste 0 1016.7 -0.1 67
2019-09-26 04:00:00 19.7 13 Norte 27 Norte 0 1016.7 0 64
2019-09-26 03:00:00 20.4 13 Noroeste 32 Noroeste 0 1016.7 0 60
2019-09-26 02:00:00 21.3 14 Noroeste 31 Noroeste 0 1016.8 0.4 57
2019-09-26 01:00:00 22.2 14 Noroeste 28 Norte 0 1016.7 0.6 56
2019-09-26 00:00:00 23.3 13 Noroeste 30 Noroeste 0 1016.7 1.1 51
2019-09-25 23:00:00 24.5 10 Noroeste 21 Noroeste 0 1016.4 0.8 47
2019-09-25 22:00:00 24.3 5 Noroeste 11 Noroeste 0 1016.1 0.5 47
2019-09-25 21:00:00 22 3 Noroeste 9 Norte 0 1015.6 -0.3 68
2019-09-25 20:00:00 23.9 4 Sudoeste 15 Sudoeste 0 1015.6 -0.7 60
2019-09-25 19:00:00 25.7 9 Sudoeste 20 Sudoeste 0 1015.6 -1.1 52
2019-09-25 18:00:00 26.2 13 Sudoeste 22 Sudoeste 0 1015.9 -1.5 49
2019-09-25 17:00:00 27.8 12 Sudoeste 22 Sudoeste 0 1016.3 -1.9 40
2019-09-25 16:00:00 29.2 7 Norte 23 Norte 0 1016.7 -2.1 34
2019-09-25 15:00:00 28 7 Norte 25 Noroeste 0 1017.4 -1.7 36
2019-09-25 14:00:00 26.1 9 Norte 25 Noroeste 0 1018.2 -1 37
2019-09-25 13:00:00 24.6 10 Norte 26 Norte 0 1018.8 -0.1 43
2019-09-25 12:00:00 23.3 9 Noroeste 27 Noroeste 0 1019.1 0.6 48
2019-09-25 11:00:00 21 11 Noroeste 26 Noroeste 0 1019.2 1.1 56
2019-09-25 10:00:00 19.5 9 Norte 19 Noroeste 0 1018.9 1 68
2019-09-25 09:00:00 18.3 7 Norte 20 Norte 0 1018.5 0.8 80
2019-09-25 08:00:00 18.5 11 Norte 20 Noroeste 0 1018.1 0.4 80
2019-09-25 07:00:00 18.8 7 Norte 13 Norte 0 1017.9 0.2 80
2019-09-25 06:00:00 19.5 4 Norte 22 Norte 0 1017.7 -0.2 79
2019-09-25 05:00:00 20.4 6 Norte 21 Norte 0 1017.7 -0.1 79
2019-09-25 04:00:00 21.5 9 Norte 23 Norte 0 1017.7 -0.5 79
2019-09-25 03:00:00 22.2 9 Norte 26 Norte 0 1017.9 -0.3 79
2019-09-25 02:00:00 23 11 Norte 24 Norte 0 1017.8 -0.4 77
2019-09-25 01:00:00 23.6 13 Noroeste 24 Norte 0 1018.2 0.5 73
2019-09-25 00:00:00 24.1 13 Noroeste 24 Norte 0 1018.2 0.8 72
2019-09-24 23:00:00 25 10 Noroeste 28 Norte 0 1018.2 1.2 67
2019-09-24 22:00:00 26.3 10 Noroeste 28 Noroeste 0 1017.7 0.7 61
2019-09-24 21:00:00 23.3 4 Oeste 12 Sudoeste 0 1017.4 0.3 69
2019-09-24 20:00:00 24.9 6 Sudoeste 24 Sudoeste 0 1017 -0.4 49
2019-09-24 19:00:00 26.7 10 Oeste 22 Oeste 0 1017 -1.2 47
2019-09-24 18:00:00 27.3 13 Sudoeste 25 Sudoeste 0 1017.1 -1.4 44
2019-09-24 17:00:00 28.7 15 Sudoeste 26 Oeste 0 1017.4 -1.7 40
2019-09-24 16:00:00 28.3 14 Sudoeste 24 Sudoeste 0 1018.2 -1.6 42
2019-09-24 15:00:00 28.1 14 Sudoeste 24 Sudoeste 0 1018.5 -1.6 41
2019-09-24 14:00:00 28.9 5 Norte 20 Norte 0 1019.1 -1.1 38
2019-09-24 13:00:00 27 5 Norte 22 Noroeste 0 1019.8 0.2 42
2019-09-24 12:00:00 25.3 7 Norte 23 Noroeste 0 1020.1 0.7 48
2019-09-24 11:00:00 22.5 7 Noroeste 27 Noroeste 0 1020.2 1.4 59
2019-09-24 10:00:00 20.2 11 Noroeste 24 Noroeste 0 1019.6 1 70
2019-09-24 09:00:00 18.8 11 Norte 26 Norte 0 1019.4 0.9 76
2019-09-24 08:00:00 18.9 10 Noroeste 26 Norte 0 1018.8 0.5 76
2019-09-24 07:00:00 19.1 11 Noroeste 27 Noroeste 0 1018.6 -0.1 76
2019-09-24 06:00:00 19.2 8 Noroeste 28 Norte 0 1018.5 -0.4 76
2019-09-24 05:00:00 19.6 11 Noroeste 29 Noroeste 0 1018.3 -0.7 73
2019-09-24 04:00:00 19.9 12 Norte 28 Noroeste 0 1018.7 -0.2 70
2019-09-24 03:00:00 20.3 13 Norte 30 Noroeste 0 1018.9 -0.2 66
2019-09-24 02:00:00 20.9 11 Norte 24 Norte 0 1019 0.1 63
2019-09-24 01:00:00 21.5 10 Norte 24 Nordeste 0 1018.9 0.2 60
2019-09-24 00:00:00 22.2 9 Noroeste 19 Norte 0 1019.1 0.8 58
2019-09-23 23:00:00 20.6 6 Oeste 11 Oeste 0 1018.9 0.8 60
2019-09-23 22:00:00 21.2 4 Oeste 12 Oeste 0 1018.7 0.7 61
2019-09-23 21:00:00 21.7 6 Sudoeste 17 Sudoeste 0 1018.3 0 59
2019-09-23 20:00:00 23.5 9 Sudoeste 22 Sudoeste 0 1018.1 -0.3 51
2019-09-23 19:00:00 25.4 11 Oeste 23 Sudoeste 0 1018 -0.8 45
2019-09-23 18:00:00 26.4 14 Sudoeste 26 Sudoeste 0 1018.3 -0.7 42
2019-09-23 17:00:00 26.7 15 Sudoeste 26 Sudoeste 0 1018.4 -1.2 43
2019-09-23 16:00:00 27.8 11 Sudoeste 21 Sudoeste 0 1018.8 -1.1 41
2019-09-23 15:00:00 28.1 8 Noroeste 21 Noroeste 0 1019 -1.2 35
2019-09-23 14:00:00 26.8 8 Noroeste 18 Oeste 0 1019.6 -0.8 41
2019-09-23 13:00:00 25.1 10 Noroeste 19 Noroeste 0 1019.9 -0.1 45
2019-09-23 12:00:00 22.8 7 Noroeste 15 Noroeste 0 1020.2 0.7 52
2019-09-23 11:00:00 20.7 6 Noroeste 19 Noroeste 0 1020.4 1.4 62
2019-09-23 10:00:00 19 5 Norte 21 Norte 0 1020 1.5 69
2019-09-23 09:00:00 17.4 10 Norte 22 Noroeste 0 1019.5 1.3 76
2019-09-23 08:00:00 17.3 9 Norte 18 Norte 0 1019 0.9 76
2019-09-23 07:00:00 17.4 5 Norte 18 Norte 0 1018.5 0.4 74
2019-09-23 06:00:00 17.6 5 Norte 19 Noroeste 0 1018.2 -0.1 72
2019-09-23 05:00:00 17.9 8 Noroeste 20 Norte 0 1018.1 -0.1 70
2019-09-23 04:00:00 18.3 8 Norte 20 Norte 0 1018.1 -0.4 67
2019-09-23 03:00:00 18.7 10 Norte 21 Noroeste 0 1018.3 0 62
2019-09-23 02:00:00 19.3 9 Noroeste 21 Noroeste 0 1018.2 0 60
2019-09-23 01:00:00 19.9 8 Noroeste 20 Noroeste 0 1018.5 1 60
2019-09-23 00:00:00 20.8 8 Noroeste 19 Norte 0 1018.3 1.4 54
2019-09-22 23:00:00 21.5 7 Noroeste 19 Noroeste 0 1018.2 1.9 51
2019-09-22 22:00:00 22 6 Noroeste 13 Noroeste 0 1017.5 1.6 53
2019-09-22 21:00:00 21.5 0 Calma 13 Sudoeste 0 1016.9 1.1 77
2019-09-22 20:00:00 22.7 9 Sudoeste 22 Sudoeste 0 1016.3 0.2 70
2019-09-22 19:00:00 23.6 15 Sudoeste 26 Sudoeste 0 1015.9 -0.7 68
2019-09-22 18:00:00 24 15 Sudoeste 25 Sudoeste 0 1015.8 -0.7 64
2019-09-22 17:00:00 25.5 14 Sudoeste 22 Sudoeste 0 1016.1 -0.6 58
2019-09-22 16:00:00 25.1 12 Sudoeste 24 Sudoeste 0 1016.6 -0.1 58
2019-09-22 15:00:00 24.7 13 Sudoeste 21 Sudoeste 0 1016.5 -0.3 58
2019-09-22 14:00:00 24.2 13 Sudoeste 19 Sudoeste 0.1 1016.7 0.1 57
2019-09-22 13:00:00 24.4 8 Noroeste 18 Noroeste 0 1016.7 0.8 55
2019-09-22 12:00:00 21.1 6 Noroeste 16 Norte 0 1016.8 1.6 68
2019-09-22 11:00:00 20.5 6 Noroeste 14 Noroeste 0 1016.6 2 77
2019-09-22 10:00:00 19.3 5 Oeste 19 Noroeste 0 1015.9 2.1 82
2019-09-22 09:00:00 18 10 Noroeste 24 Norte 0 1015.2 2.1 86
2019-09-22 08:00:00 17.6 11 Norte 28 Norte 0 1014.6 1.7 86
2019-09-22 07:00:00 17.8 7 Noroeste 21 Norte 0 1013.8 0.6 84
2019-09-22 06:00:00 18.6 9 Noroeste 24 Norte 0 1013.1 0.2 83
2019-09-22 05:00:00 19.2 12 Norte 25 Noroeste 0 1012.9 0.3 83
2019-09-22 04:00:00 19.4 7 Norte 18 Norte 0 1013.2 0.7 83
2019-09-22 03:00:00 19.5 6 Noroeste 23 Sudoeste 2.3 1012.9 0.1 91
2019-09-22 02:00:00 22.1 15 Sudoeste 26 Sudoeste 0.7 1012.6 -0.2 92
2019-09-22 01:00:00 22.6 13 Sur 22 Sur 0 1012.5 0 90
2019-09-22 00:00:00 22.4 11 Sur 21 Sudoeste 0.1 1012.8 0.8 90
2019-09-21 23:00:00 22.4 12 Sur 18 Sur 0 1012.8 0.8 90
2019-09-21 22:00:00 22.5 8 Sur 14 Sudoeste 0 1012.5 0.7 88
2019-09-21 21:00:00 22.6 6 Sudoeste 20 Sudoeste 0 1012 0.2 88
2019-09-21 20:00:00 22.7 12 Sudoeste 23 Sudoeste 0 1012 -0.2 88
2019-09-21 19:00:00 23 13 Sudoeste 22 Sudoeste 0.1 1011.8 -0.6 87
2019-09-21 18:00:00 23.2 14 Sur 24 Sur 0 1011.8 -0.9 87
2019-09-21 17:00:00 23.1 14 Sur 24 Sur 0 1012.2 -0.7 84
2019-09-21 16:00:00 23.5 17 Sur 26 Sur 0 1012.4 -0.6 80
2019-09-21 15:00:00 23.4 12 Sur 25 Sur 0 1012.7 -0.7 83
2019-09-21 14:00:00 23.7 15 Sur 26 Sur 0 1012.9 -0.2 81
2019-09-21 13:00:00 23.6 14 Sur 23 Sur 0 1013 0.5 80
2019-09-21 12:00:00 23.8 14 Sur 24 Sur 0 1013.4 1.4 80
2019-09-21 11:00:00 23.4 13 Sur 26 Sur 0 1013.1 1.6 82
2019-09-21 10:00:00 22.7 12 Sur 23 Sur 0 1012.5 0.9 85
2019-09-21 09:00:00 22.1 10 Sur 17 Sur 0 1012 0.1 86
2019-09-21 08:00:00 22.1 10 Sur 17 Sudoeste 0 1011.5 -0.2 86
2019-09-21 07:00:00 21.9 6 Sur 11 Sur 0 1011.6 -0.8 86
2019-09-21 06:00:00 21.7 5 Sudoeste 10 Sur 0 1011.9 -0.9 86
2019-09-21 05:00:00 20.9 4 Sur 6 Sur 0 1011.7 -1.2 85
2019-09-21 04:00:00 20.7 4 Sudoeste 11 Oeste 0 1012.4 -0.4 86
2019-09-21 03:00:00 20.3 6 Sudoeste 17 Sudoeste 0 1012.8 -0.3 86
2019-09-21 02:00:00 20 11 Sudoeste 17 Sudoeste 0 1012.9 -0.2 83
2019-09-21 01:00:00 19.9 5 Sudoeste 14 Oeste 0 1012.8 -0.1 85
2019-09-21 00:00:00 20 0 Calma 7 Oeste 0 1013.1 0.5 83
2019-09-20 23:00:00 21 4 Oeste 15 Oeste 0 1013.1 0.5 79
2019-09-20 22:00:00 21.7 8 Sudoeste 15 Sudoeste 0 1012.9 0.3 79
2019-09-20 21:00:00 21.7 6 Sudoeste 14 Sudoeste 0 1012.6 -0.5 76
2019-09-20 20:00:00 22.6 9 Sudoeste 13 Sudoeste 0 1012.6 0.2 72
2019-09-20 19:00:00 23.9 9 Oeste 21 Oeste 0 1012.6 -0.6 68
2019-09-20 18:00:00 22.6 12 Oeste 23 Oeste 0.1 1013.1 -0.4 78
2019-09-20 17:00:00 23.2 8 Sudoeste 19 Sudoeste 0 1012.4 -1.1 67
2019-09-20 16:00:00 23.8 9 Sudoeste 16 Sudoeste 0 1013.2 -0.8 63
2019-09-20 15:00:00 24.3 9 Sudoeste 16 Sudoeste 0 1013.5 -0.8 59
2019-09-20 14:00:00 25.3 2 Sur 10 Sur 0 1013.5 -0.8 59
2019-09-20 13:00:00 23.9 0 Calma 7 Nordeste 0 1014 -0.1 61
2019-09-20 12:00:00 22.2 2 Nordeste 15 Noroeste 0 1014.3 0.8 68
2019-09-20 11:00:00 21 4 Noroeste 15 Noroeste 0 1014.3 1.4 74
2019-09-20 10:00:00 19.9 6 Noroeste 12 Norte 0 1014.1 1.3 80
2019-09-20 09:00:00 19.4 2 Norte 9 Noroeste 0 1013.5 0.4 80
2019-09-20 08:00:00 19.5 6 Norte 16 Norte 0 1012.9 -0.4 80
2019-09-20 07:00:00 19.7 4 Norte 15 Noroeste 0 1012.8 -0.7 78
2019-09-20 06:00:00 20 6 Noroeste 19 Norte 0 1013.1 -0.8 76
2019-09-20 05:00:00 20 5 Noroeste 24 Norte 0 1013.3 -0.7 76
2019-09-20 04:00:00 20.3 9 Noroeste 23 Norte 0 1013.5 -0.7 74
2019-09-20 03:00:00 20.7 9 Noroeste 27 Noroeste 0 1013.9 -0.5 71
2019-09-20 02:00:00 21.1 9 Norte 24 Norte 0 1014 -0.1 68
2019-09-20 01:00:00 21.8 12 Norte 28 Noroeste 0 1014.2 0.3 66
2019-09-20 00:00:00 22.6 11 Noroeste 29 Norte 0 1014.4 1.2 63
2019-09-19 23:00:00 23.6 10 Norte 22 Noroeste 0 1014.1 1 60
2019-09-19 22:00:00 23 4 Oeste 14 Oeste 0 1013.9 0.7 72
2019-09-19 21:00:00 23.4 6 Oeste 18 Sudoeste 0 1013.2 -0.3 67
2019-09-19 20:00:00 24.5 10 Sudoeste 24 Sudoeste 0 1013.1 -0.7 61
2019-09-19 19:00:00 25.1 14 Sudoeste 28 Sudoeste 0 1013.2 -1.1 59
2019-09-19 18:00:00 25.4 15 Sudoeste 26 Sudoeste 0 1013.5 -1.6 59
2019-09-19 17:00:00 25.9 14 Sudoeste 26 Sudoeste 0 1013.8 -1.7 53
2019-09-19 16:00:00 26.3 17 Sudoeste 27 Sudoeste 0 1014.3 -1.6 53
2019-09-19 15:00:00 26.5 15 Sudoeste 26 Sudoeste 0 1015.1 -1.2 53
2019-09-19 14:00:00 26.4 14 Sudoeste 23 Sudoeste 0 1015.5 -0.8 51
2019-09-19 13:00:00 25.9 10 Sudoeste 17 Sudoeste 0 1015.9 -0.1 53
2019-09-19 12:00:00 24.8 6 Noroeste 15 Norte 0 1016.3 1 55
2019-09-19 11:00:00 22.4 4 Noroeste 22 Noroeste 0 1016.3 1.3 64
2019-09-19 10:00:00 20.5 6 Noroeste 21 Noroeste 0 1016 1 73
2019-09-19 09:00:00 19 8 Noroeste 16 Norte 0 1015.3 0.4 80
2019-09-19 08:00:00 18.9 7 Norte 20 Norte 0 1015 0 79
2019-09-19 07:00:00 19.1 6 Noroeste 19 Noroeste 0 1015 -0.1 77
2019-09-19 06:00:00 19.4 7 Noroeste 21 Noroeste 0 1014.9 -0.7 76
2019-09-19 05:00:00 19.7 7 Noroeste 23 Norte 0 1015 -0.6 76
2019-09-19 04:00:00 20.2 11 Noroeste 27 Noroeste 0 1015.1 -0.6 75
2019-09-19 03:00:00 20.6 11 Norte 27 Norte 0 1015.6 0.2 70
2019-09-19 02:00:00 21.1 12 Norte 28 Noroeste 0 1015.6 0.3 65
2019-09-19 01:00:00 21.9 12 Noroeste 27 Noroeste 0 1015.7 1 60
2019-09-19 00:00:00 22.7 10 Norte 24 Norte 0 1015.4 0.9 56
2019-09-18 23:00:00 23.2 9 Norte 19 Noroeste 0 1015.3 1 59
2019-09-18 22:00:00 22.5 6 Oeste 19 Oeste 0 1014.7 0.5 73
2019-09-18 21:00:00 23.1 10 Oeste 26 Sudoeste 0 1014.5 0.1 73
2019-09-18 20:00:00 24.2 15 Sudoeste 28 Sudoeste 0 1014.3 -0.6 66
2019-09-18 19:00:00 25.8 15 Sudoeste 32 Sudoeste 0 1014.2 -1.1 62
2019-09-18 18:00:00 25.9 19 Sudoeste 31 Sudoeste 0 1014.4 -1.3 58
2019-09-18 17:00:00 26 14 Sudoeste 24 Sudoeste 0 1014.9 -0.9 58
2019-09-18 16:00:00 26.3 14 Sudoeste 28 Sudoeste 0 1015.3 -0.6 58
2019-09-18 15:00:00 25.7 18 Sudoeste 27 Sur 0 1015.7 -0.3 58
2019-09-18 14:00:00 25.1 15 Sur 22 Sur 0 1015.8 0 54
2019-09-18 13:00:00 26 12 Sudoeste 19 Sudoeste 0 1015.9 0.4 51
2019-09-18 12:00:00 25.2 3 Norte 18 Noroeste 0 1016 0.9 51
2019-09-18 11:00:00 23.1 5 Noroeste 14 Noroeste 0 1015.8 1.1 59
2019-09-18 10:00:00 20.4 4 Noroeste 9 Noroeste 0 1015.5 1.3 72
2019-09-18 09:00:00 17.7 0 Calma 3 Norte 0 1015.1 1.3 89
2019-09-18 08:00:00 17.9 2 Norte 7 Norte 0 1014.7 0.9 85
2019-09-18 07:00:00 18.2 3 Norte 7 Noroeste 0 1014.2 0.2 82
2019-09-18 06:00:00 19 4 Noroeste 13 Oeste 0 1013.8 -0.2 79
2019-09-18 05:00:00 19.7 5 Noroeste 14 Norte 0 1013.8 -0.5 77
2019-09-18 04:00:00 20.1 7 Noroeste 17 Norte 0 1014 -0.4 76
2019-09-18 03:00:00 20.5 6 Norte 19 Noroeste 0 1014 -0.4 75
2019-09-18 02:00:00 21 8 Noroeste 26 Norte 0 1014.3 0.5 72
2019-09-18 01:00:00 21.5 8 Noroeste 28 Norte 0 1014.4 1.4 69
2019-09-18 00:00:00 22.3 4 Norte 12 Noroeste 0 1014.4 1.9 66
2019-09-17 23:00:00 21.8 4 Oeste 13 Oeste 0 1013.8 1.1 68
2019-09-17 22:00:00 22.7 7 Oeste 20 Oeste 0 1013 -0.1 70
2019-09-17 21:00:00 23.3 12 Oeste 22 Oeste 0 1012.5 -0.9 72